sensor_id;sensor_type;location;lat;lon;timestamp;P1;durP1;ratioP1;P2;durP2;ratioP2
83398;SDS011;73326;43.228;0.106;2023-11-18T00:02:13;16.70;;;7.68;;
83398;SDS011;73326;43.228;0.106;2023-11-18T00:04:39;4.85;;;3.33;;
83398;SDS011;73326;43.228;0.106;2023-11-18T00:07:05;5.35;;;2.50;;
83398;SDS011;73326;43.228;0.106;2023-11-18T00:09:31;4.90;;;2.47;;
83398;SDS011;73326;43.228;0.106;2023-11-18T00:11:57;3.75;;;2.55;;
83398;SDS011;73326;43.228;0.106;2023-11-18T00:14:23;4.40;;;2.72;;
83398;SDS011;73326;43.228;0.106;2023-11-18T00:16:49;6.95;;;3.67;;
83398;SDS011;73326;43.228;0.106;2023-11-18T00:19:15;5.15;;;2.40;;
83398;SDS011;73326;43.228;0.106;2023-11-18T00:21:42;3.53;;;2.40;;
83398;SDS011;73326;43.228;0.106;2023-11-18T00:24:09;3.72;;;2.55;;
83398;SDS011;73326;43.228;0.106;2023-11-18T00:26:35;6.57;;;3.13;;
83398;SDS011;73326;43.228;0.106;2023-11-18T00:29:01;5.55;;;3.53;;
83398;SDS011;73326;43.228;0.106;2023-11-18T00:31:27;9.13;;;4.72;;
83398;SDS011;73326;43.228;0.106;2023-11-18T00:33:54;3.90;;;2.85;;
83398;SDS011;73326;43.228;0.106;2023-11-18T00:36:20;12.70;;;8.82;;
83398;SDS011;73326;43.228;0.106;2023-11-18T00:38:46;7.90;;;4.50;;
83398;SDS011;73326;43.228;0.106;2023-11-18T00:41:12;7.60;;;3.60;;
83398;SDS011;73326;43.228;0.106;2023-11-18T00:43:38;7.03;;;4.10;;
83398;SDS011;73326;43.228;0.106;2023-11-18T00:46:04;5.78;;;3.88;;
83398;SDS011;73326;43.228;0.106;2023-11-18T00:48:30;7.57;;;3.95;;
83398;SDS011;73326;43.228;0.106;2023-11-18T00:50:56;9.10;;;4.40;;
83398;SDS011;73326;43.228;0.106;2023-11-18T00:53:22;9.13;;;6.47;;
83398;SDS011;73326;43.228;0.106;2023-11-18T00:55:49;7.47;;;4.18;;
83398;SDS011;73326;43.228;0.106;2023-11-18T00:58:15;6.53;;;4.97;;
83398;SDS011;73326;43.228;0.106;2023-11-18T01:00:41;8.68;;;4.82;;
83398;SDS011;73326;43.228;0.106;2023-11-18T01:03:07;7.90;;;4.97;;
83398;SDS011;73326;43.228;0.106;2023-11-18T01:05:35;13.13;;;6.90;;
83398;SDS011;73326;43.228;0.106;2023-11-18T01:08:01;10.75;;;6.20;;
83398;SDS011;73326;43.228;0.106;2023-11-18T01:10:27;7.97;;;4.13;;
83398;SDS011;73326;43.228;0.106;2023-11-18T01:12:54;7.85;;;4.70;;
83398;SDS011;73326;43.228;0.106;2023-11-18T01:15:22;6.53;;;4.13;;
83398;SDS011;73326;43.228;0.106;2023-11-18T01:17:48;7.13;;;3.97;;
83398;SDS011;73326;43.228;0.106;2023-11-18T01:20:14;13.60;;;7.10;;
83398;SDS011;73326;43.228;0.106;2023-11-18T01:22:46;10.00;;;6.00;;
83398;SDS011;73326;43.228;0.106;2023-11-18T01:25:14;5.80;;;3.70;;
83398;SDS011;73326;43.228;0.106;2023-11-18T01:27:42;10.43;;;4.50;;
83398;SDS011;73326;43.228;0.106;2023-11-18T01:30:12;6.18;;;3.60;;
83398;SDS011;73326;43.228;0.106;2023-11-18T01:32:38;6.05;;;3.15;;
83398;SDS011;73326;43.228;0.106;2023-11-18T01:35:07;10.18;;;4.68;;
83398;SDS011;73326;43.228;0.106;2023-11-18T01:37:35;4.50;;;2.97;;
83398;SDS011;73326;43.228;0.106;2023-11-18T01:40:02;8.05;;;4.97;;
83398;SDS011;73326;43.228;0.106;2023-11-18T01:42:31;6.57;;;3.53;;
83398;SDS011;73326;43.228;0.106;2023-11-18T01:44:57;3.38;;;2.17;;
83398;SDS011;73326;43.228;0.106;2023-11-18T01:47:24;4.53;;;2.00;;
83398;SDS011;73326;43.228;0.106;2023-11-18T01:49:51;4.72;;;1.42;;
83398;SDS011;73326;43.228;0.106;2023-11-18T01:52:18;2.97;;;1.58;;
83398;SDS011;73326;43.228;0.106;2023-11-18T01:54:44;3.03;;;1.70;;
83398;SDS011;73326;43.228;0.106;2023-11-18T01:57:10;3.53;;;1.80;;
83398;SDS011;73326;43.228;0.106;2023-11-18T01:59:36;1.95;;;1.50;;
83398;SDS011;73326;43.228;0.106;2023-11-18T02:02:05;2.72;;;1.58;;
83398;SDS011;73326;43.228;0.106;2023-11-18T02:04:31;3.83;;;1.90;;
83398;SDS011;73326;43.228;0.106;2023-11-18T02:06:58;2.95;;;1.75;;
83398;SDS011;73326;43.228;0.106;2023-11-18T02:09:28;2.22;;;1.77;;
83398;SDS011;73326;43.228;0.106;2023-11-18T02:14:21;3.97;;;2.05;;
83398;SDS011;73326;43.228;0.106;2023-11-18T02:16:51;2.90;;;2.20;;
83398;SDS011;73326;43.228;0.106;2023-11-18T02:19:23;3.95;;;2.13;;
83398;SDS011;73326;43.228;0.106;2023-11-18T02:21:50;3.78;;;2.00;;
83398;SDS011;73326;43.228;0.106;2023-11-18T02:26:59;4.50;;;1.95;;
83398;SDS011;73326;43.228;0.106;2023-11-18T02:29:26;3.75;;;1.90;;
83398;SDS011;73326;43.228;0.106;2023-11-18T02:31:55;2.85;;;1.70;;
83398;SDS011;73326;43.228;0.106;2023-11-18T02:34:26;2.90;;;1.95;;
83398;SDS011;73326;43.228;0.106;2023-11-18T02:36:53;3.58;;;2.05;;
83398;SDS011;73326;43.228;0.106;2023-11-18T02:39:29;3.97;;;2.20;;
83398;SDS011;73326;43.228;0.106;2023-11-18T02:41:58;6.03;;;2.30;;
83398;SDS011;73326;43.228;0.106;2023-11-18T02:44:26;4.95;;;2.42;;
83398;SDS011;73326;43.228;0.106;2023-11-18T02:46:55;4.25;;;2.22;;
83398;SDS011;73326;43.228;0.106;2023-11-18T02:49:21;5.03;;;2.70;;
83398;SDS011;73326;43.228;0.106;2023-11-18T02:51:47;4.55;;;2.95;;
83398;SDS011;73326;43.228;0.106;2023-11-18T02:54:13;5.93;;;2.33;;
83398;SDS011;73326;43.228;0.106;2023-11-18T02:56:41;5.95;;;2.75;;
83398;SDS011;73326;43.228;0.106;2023-11-18T02:59:07;5.38;;;2.30;;
83398;SDS011;73326;43.228;0.106;2023-11-18T03:01:35;4.07;;;2.25;;
83398;SDS011;73326;43.228;0.106;2023-11-18T03:04:01;6.28;;;2.40;;
83398;SDS011;73326;43.228;0.106;2023-11-18T03:06:27;3.53;;;2.10;;
83398;SDS011;73326;43.228;0.106;2023-11-18T03:08:53;5.90;;;2.72;;
83398;SDS011;73326;43.228;0.106;2023-11-18T03:11:19;6.10;;;2.72;;
83398;SDS011;73326;43.228;0.106;2023-11-18T03:13:45;8.13;;;2.85;;
83398;SDS011;73326;43.228;0.106;2023-11-18T03:16:11;4.80;;;2.42;;
83398;SDS011;73326;43.228;0.106;2023-11-18T03:18:40;3.28;;;2.10;;
83398;SDS011;73326;43.228;0.106;2023-11-18T03:21:14;6.35;;;2.30;;
83398;SDS011;73326;43.228;0.106;2023-11-18T03:23:40;4.03;;;2.20;;
83398;SDS011;73326;43.228;0.106;2023-11-18T03:26:07;5.85;;;2.22;;
83398;SDS011;73326;43.228;0.106;2023-11-18T03:28:33;4.53;;;2.70;;
83398;SDS011;73326;43.228;0.106;2023-11-18T03:31:01;4.40;;;2.70;;
83398;SDS011;73326;43.228;0.106;2023-11-18T03:33:28;7.63;;;3.08;;
83398;SDS011;73326;43.228;0.106;2023-11-18T03:35:54;4.65;;;2.40;;
83398;SDS011;73326;43.228;0.106;2023-11-18T03:38:21;7.43;;;2.50;;
83398;SDS011;73326;43.228;0.106;2023-11-18T03:40:47;6.72;;;2.00;;
83398;SDS011;73326;43.228;0.106;2023-11-18T03:43:13;3.97;;;2.05;;
83398;SDS011;73326;43.228;0.106;2023-11-18T03:45:39;4.38;;;2.20;;
83398;SDS011;73326;43.228;0.106;2023-11-18T03:48:06;5.10;;;2.35;;
83398;SDS011;73326;43.228;0.106;2023-11-18T03:50:32;3.28;;;1.83;;
83398;SDS011;73326;43.228;0.106;2023-11-18T03:52:58;3.80;;;2.30;;
83398;SDS011;73326;43.228;0.106;2023-11-18T03:55:26;5.47;;;2.05;;
83398;SDS011;73326;43.228;0.106;2023-11-18T03:57:52;4.07;;;1.95;;
83398;SDS011;73326;43.228;0.106;2023-11-18T04:00:19;4.47;;;1.83;;
83398;SDS011;73326;43.228;0.106;2023-11-18T04:02:46;5.20;;;1.80;;
83398;SDS011;73326;43.228;0.106;2023-11-18T04:05:13;4.45;;;1.80;;
83398;SDS011;73326;43.228;0.106;2023-11-18T04:07:39;4.28;;;1.90;;
83398;SDS011;73326;43.228;0.106;2023-11-18T04:10:06;3.03;;;2.13;;
83398;SDS011;73326;43.228;0.106;2023-11-18T04:12:35;2.63;;;1.38;;
83398;SDS011;73326;43.228;0.106;2023-11-18T04:15:01;2.83;;;1.35;;
83398;SDS011;73326;43.228;0.106;2023-11-18T04:17:29;2.83;;;1.20;;
83398;SDS011;73326;43.228;0.106;2023-11-18T04:19:55;1.67;;;1.10;;
83398;SDS011;73326;43.228;0.106;2023-11-18T04:22:22;3.80;;;1.30;;
83398;SDS011;73326;43.228;0.106;2023-11-18T04:24:48;2.50;;;1.25;;
83398;SDS011;73326;43.228;0.106;2023-11-18T04:27:15;1.45;;;1.02;;
83398;SDS011;73326;43.228;0.106;2023-11-18T04:29:41;1.58;;;1.10;;
83398;SDS011;73326;43.228;0.106;2023-11-18T04:32:07;3.55;;;1.10;;
83398;SDS011;73326;43.228;0.106;2023-11-18T04:34:36;3.25;;;1.00;;
83398;SDS011;73326;43.228;0.106;2023-11-18T04:37:03;1.10;;;1.00;;
83398;SDS011;73326;43.228;0.106;2023-11-18T04:39:31;3.10;;;1.17;;
83398;SDS011;73326;43.228;0.106;2023-11-18T04:41:57;1.63;;;1.00;;
83398;SDS011;73326;43.228;0.106;2023-11-18T04:44:23;2.47;;;1.08;;
83398;SDS011;73326;43.228;0.106;2023-11-18T04:46:49;3.05;;;1.02;;
83398;SDS011;73326;43.228;0.106;2023-11-18T04:49:15;2.30;;;0.90;;
83398;SDS011;73326;43.228;0.106;2023-11-18T04:51:41;2.58;;;1.10;;
83398;SDS011;73326;43.228;0.106;2023-11-18T04:54:07;4.13;;;1.40;;
83398;SDS011;73326;43.228;0.106;2023-11-18T04:56:36;3.50;;;1.30;;
83398;SDS011;73326;43.228;0.106;2023-11-18T04:59:03;2.95;;;1.80;;
83398;SDS011;73326;43.228;0.106;2023-11-18T05:01:30;1.40;;;1.17;;
83398;SDS011;73326;43.228;0.106;2023-11-18T05:03:56;3.60;;;1.42;;
83398;SDS011;73326;43.228;0.106;2023-11-18T05:06:22;4.40;;;1.80;;
83398;SDS011;73326;43.228;0.106;2023-11-18T05:08:48;4.10;;;1.58;;
83398;SDS011;73326;43.228;0.106;2023-11-18T05:11:14;2.47;;;1.55;;
83398;SDS011;73326;43.228;0.106;2023-11-18T05:13:41;1.55;;;1.10;;
83398;SDS011;73326;43.228;0.106;2023-11-18T05:16:07;2.35;;;1.40;;
83398;SDS011;73326;43.228;0.106;2023-11-18T05:18:35;3.03;;;1.20;;
83398;SDS011;73326;43.228;0.106;2023-11-18T05:21:02;5.32;;;1.17;;
83398;SDS011;73326;43.228;0.106;2023-11-18T05:23:31;1.58;;;1.02;;
83398;SDS011;73326;43.228;0.106;2023-11-18T05:25:57;1.42;;;1.33;;
83398;SDS011;73326;43.228;0.106;2023-11-18T05:28:23;1.48;;;1.15;;
83398;SDS011;73326;43.228;0.106;2023-11-18T05:30:50;1.20;;;1.05;;
83398;SDS011;73326;43.228;0.106;2023-11-18T05:33:19;1.25;;;1.13;;
83398;SDS011;73326;43.228;0.106;2023-11-18T05:35:45;2.90;;;1.10;;
83398;SDS011;73326;43.228;0.106;2023-11-18T05:38:18;2.58;;;1.42;;
83398;SDS011;73326;43.228;0.106;2023-11-18T05:40:46;1.70;;;1.15;;
83398;SDS011;73326;43.228;0.106;2023-11-18T05:43:32;1.48;;;1.10;;
83398;SDS011;73326;43.228;0.106;2023-11-18T05:46:03;2.20;;;1.30;;
83398;SDS011;73326;43.228;0.106;2023-11-18T05:48:46;1.42;;;1.00;;
83398;SDS011;73326;43.228;0.106;2023-11-18T05:51:12;3.92;;;1.38;;
83398;SDS011;73326;43.228;0.106;2023-11-18T05:53:39;4.38;;;1.40;;
83398;SDS011;73326;43.228;0.106;2023-11-18T05:56:06;4.00;;;1.73;;
83398;SDS011;73326;43.228;0.106;2023-11-18T05:58:32;4.10;;;1.73;;
83398;SDS011;73326;43.228;0.106;2023-11-18T06:00:58;3.38;;;1.50;;
83398;SDS011;73326;43.228;0.106;2023-11-18T06:03:25;3.67;;;2.08;;
83398;SDS011;73326;43.228;0.106;2023-11-18T06:05:51;3.78;;;1.70;;
83398;SDS011;73326;43.228;0.106;2023-11-18T06:08:17;3.13;;;1.77;;
83398;SDS011;73326;43.228;0.106;2023-11-18T06:10:43;3.08;;;1.75;;
83398;SDS011;73326;43.228;0.106;2023-11-18T06:13:10;4.70;;;1.85;;
83398;SDS011;73326;43.228;0.106;2023-11-18T06:15:38;4.35;;;2.00;;
83398;SDS011;73326;43.228;0.106;2023-11-18T06:18:04;2.10;;;1.88;;
83398;SDS011;73326;43.228;0.106;2023-11-18T06:20:30;4.57;;;2.08;;
83398;SDS011;73326;43.228;0.106;2023-11-18T06:22:56;4.10;;;1.70;;
83398;SDS011;73326;43.228;0.106;2023-11-18T06:25:22;3.13;;;1.40;;
83398;SDS011;73326;43.228;0.106;2023-11-18T06:27:50;2.95;;;1.60;;
83398;SDS011;73326;43.228;0.106;2023-11-18T06:30:17;1.75;;;1.42;;
83398;SDS011;73326;43.228;0.106;2023-11-18T06:32:45;2.38;;;1.40;;
83398;SDS011;73326;43.228;0.106;2023-11-18T06:35:13;3.58;;;2.15;;
83398;SDS011;73326;43.228;0.106;2023-11-18T06:37:40;5.93;;;4.40;;
83398;SDS011;73326;43.228;0.106;2023-11-18T06:40:07;4.38;;;3.10;;
83398;SDS011;73326;43.228;0.106;2023-11-18T06:42:42;4.82;;;2.63;;
83398;SDS011;73326;43.228;0.106;2023-11-18T06:45:08;3.55;;;2.08;;
83398;SDS011;73326;43.228;0.106;2023-11-18T06:47:34;1.88;;;1.63;;
83398;SDS011;73326;43.228;0.106;2023-11-18T06:50:03;2.33;;;1.63;;
83398;SDS011;73326;43.228;0.106;2023-11-18T06:52:29;1.90;;;1.70;;
83398;SDS011;73326;43.228;0.106;2023-11-18T06:54:57;2.55;;;1.60;;
83398;SDS011;73326;43.228;0.106;2023-11-18T06:57:23;3.28;;;1.55;;
83398;SDS011;73326;43.228;0.106;2023-11-18T06:59:49;1.20;;;1.08;;
83398;SDS011;73326;43.228;0.106;2023-11-18T07:02:15;3.85;;;1.42;;
83398;SDS011;73326;43.228;0.106;2023-11-18T07:04:41;1.08;;;0.98;;
83398;SDS011;73326;43.228;0.106;2023-11-18T07:07:07;1.58;;;1.20;;
83398;SDS011;73326;43.228;0.106;2023-11-18T07:09:33;1.90;;;0.90;;
83398;SDS011;73326;43.228;0.106;2023-11-18T07:12:01;1.00;;;0.90;;
83398;SDS011;73326;43.228;0.106;2023-11-18T07:14:28;0.93;;;0.80;;
83398;SDS011;73326;43.228;0.106;2023-11-18T07:16:54;1.90;;;1.27;;
83398;SDS011;73326;43.228;0.106;2023-11-18T07:19:20;2.40;;;1.20;;
83398;SDS011;73326;43.228;0.106;2023-11-18T07:21:47;1.73;;;1.20;;
83398;SDS011;73326;43.228;0.106;2023-11-18T07:24:14;2.15;;;1.30;;
83398;SDS011;73326;43.228;0.106;2023-11-18T07:26:40;1.15;;;0.88;;
83398;SDS011;73326;43.228;0.106;2023-11-18T07:29:06;2.45;;;1.15;;
83398;SDS011;73326;43.228;0.106;2023-11-18T07:31:32;2.40;;;1.20;;
83398;SDS011;73326;43.228;0.106;2023-11-18T07:34:01;2.40;;;1.30;;
83398;SDS011;73326;43.228;0.106;2023-11-18T07:36:27;1.70;;;1.30;;
83398;SDS011;73326;43.228;0.106;2023-11-18T07:38:54;1.92;;;1.10;;
83398;SDS011;73326;43.228;0.106;2023-11-18T07:41:20;1.85;;;1.25;;
83398;SDS011;73326;43.228;0.106;2023-11-18T07:43:50;4.15;;;1.65;;
83398;SDS011;73326;43.228;0.106;2023-11-18T07:46:17;3.78;;;2.78;;
83398;SDS011;73326;43.228;0.106;2023-11-18T07:48:43;5.00;;;3.00;;
83398;SDS011;73326;43.228;0.106;2023-11-18T07:51:10;3.70;;;2.70;;
83398;SDS011;73326;43.228;0.106;2023-11-18T07:53:38;4.25;;;2.70;;
83398;SDS011;73326;43.228;0.106;2023-11-18T07:56:04;6.05;;;4.18;;
83398;SDS011;73326;43.228;0.106;2023-11-18T07:58:32;9.15;;;4.82;;
83398;SDS011;73326;43.228;0.106;2023-11-18T08:01:02;9.35;;;4.90;;
83398;SDS011;73326;43.228;0.106;2023-11-18T08:03:29;9.60;;;5.18;;
83398;SDS011;73326;43.228;0.106;2023-11-18T08:05:56;11.98;;;5.80;;
83398;SDS011;73326;43.228;0.106;2023-11-18T08:08:23;12.07;;;5.10;;
83398;SDS011;73326;43.228;0.106;2023-11-18T08:10:49;5.72;;;3.70;;
83398;SDS011;73326;43.228;0.106;2023-11-18T08:13:15;6.38;;;3.20;;
83398;SDS011;73326;43.228;0.106;2023-11-18T08:15:41;4.30;;;3.17;;
83398;SDS011;73326;43.228;0.106;2023-11-18T08:18:10;5.63;;;3.58;;
83398;SDS011;73326;43.228;0.106;2023-11-18T08:20:36;6.50;;;3.47;;
83398;SDS011;73326;43.228;0.106;2023-11-18T08:23:02;2.55;;;1.85;;
83398;SDS011;73326;43.228;0.106;2023-11-18T08:25:31;1.98;;;1.38;;
83398;SDS011;73326;43.228;0.106;2023-11-18T08:28:01;1.48;;;1.15;;
83398;SDS011;73326;43.228;0.106;2023-11-18T08:30:27;2.85;;;0.98;;
83398;SDS011;73326;43.228;0.106;2023-11-18T08:32:53;1.15;;;0.95;;
83398;SDS011;73326;43.228;0.106;2023-11-18T08:35:19;0.98;;;0.77;;
83398;SDS011;73326;43.228;0.106;2023-11-18T08:37:47;2.90;;;0.90;;
83398;SDS011;73326;43.228;0.106;2023-11-18T08:40:13;2.75;;;1.13;;
83398;SDS011;73326;43.228;0.106;2023-11-18T08:42:50;1.30;;;1.15;;
83398;SDS011;73326;43.228;0.106;2023-11-18T08:45:17;1.40;;;1.08;;
83398;SDS011;73326;43.228;0.106;2023-11-18T08:47:44;3.20;;;1.50;;
83398;SDS011;73326;43.228;0.106;2023-11-18T08:50:12;3.78;;;2.17;;
83398;SDS011;73326;43.228;0.106;2023-11-18T08:52:38;1.65;;;1.50;;
83398;SDS011;73326;43.228;0.106;2023-11-18T08:55:11;1.95;;;0.90;;
83398;SDS011;73326;43.228;0.106;2023-11-18T08:57:46;1.60;;;0.80;;
83398;SDS011;73326;43.228;0.106;2023-11-18T09:00:27;1.30;;;0.90;;
83398;SDS011;73326;43.228;0.106;2023-11-18T09:03:12;2.95;;;0.90;;
83398;SDS011;73326;43.228;0.106;2023-11-18T09:05:59;2.15;;;1.02;;
83398;SDS011;73326;43.228;0.106;2023-11-18T09:08:38;1.40;;;1.00;;
83398;SDS011;73326;43.228;0.106;2023-11-18T09:11:05;2.03;;;1.20;;
83398;SDS011;73326;43.228;0.106;2023-11-18T09:13:31;1.40;;;1.00;;
83398;SDS011;73326;43.228;0.106;2023-11-18T09:16:00;2.08;;;0.90;;
83398;SDS011;73326;43.228;0.106;2023-11-18T09:18:27;1.15;;;1.05;;
83398;SDS011;73326;43.228;0.106;2023-11-18T09:20:55;3.13;;;1.15;;
83398;SDS011;73326;43.228;0.106;2023-11-18T09:23:24;1.27;;;1.10;;
83398;SDS011;73326;43.228;0.106;2023-11-18T09:25:50;1.80;;;0.90;;
83398;SDS011;73326;43.228;0.106;2023-11-18T09:28:18;1.33;;;1.15;;
83398;SDS011;73326;43.228;0.106;2023-11-18T09:30:45;2.25;;;1.30;;
83398;SDS011;73326;43.228;0.106;2023-11-18T09:33:17;2.53;;;1.73;;
83398;SDS011;73326;43.228;0.106;2023-11-18T09:35:53;3.88;;;1.95;;
83398;SDS011;73326;43.228;0.106;2023-11-18T09:38:23;4.30;;;2.00;;
83398;SDS011;73326;43.228;0.106;2023-11-18T09:40:50;3.25;;;1.90;;
83398;SDS011;73326;43.228;0.106;2023-11-18T09:43:18;2.42;;;1.83;;
83398;SDS011;73326;43.228;0.106;2023-11-18T09:45:46;2.72;;;1.70;;
83398;SDS011;73326;43.228;0.106;2023-11-18T09:48:14;1.60;;;1.50;;
83398;SDS011;73326;43.228;0.106;2023-11-18T09:50:50;2.58;;;1.60;;
83398;SDS011;73326;43.228;0.106;2023-11-18T09:53:16;2.15;;;1.55;;
83398;SDS011;73326;43.228;0.106;2023-11-18T09:56:07;2.75;;;1.02;;
83398;SDS011;73326;43.228;0.106;2023-11-18T09:58:41;1.13;;;1.02;;
83398;SDS011;73326;43.228;0.106;2023-11-18T10:01:09;1.42;;;1.30;;
83398;SDS011;73326;43.228;0.106;2023-11-18T10:03:39;2.42;;;1.40;;
83398;SDS011;73326;43.228;0.106;2023-11-18T10:06:07;1.40;;;1.20;;
83398;SDS011;73326;43.228;0.106;2023-11-18T10:08:34;1.30;;;1.17;;
83398;SDS011;73326;43.228;0.106;2023-11-18T10:11:03;1.45;;;1.33;;
83398;SDS011;73326;43.228;0.106;2023-11-18T10:13:34;1.45;;;1.20;;
83398;SDS011;73326;43.228;0.106;2023-11-18T10:16:05;2.35;;;1.40;;
83398;SDS011;73326;43.228;0.106;2023-11-18T10:18:31;1.88;;;1.30;;
83398;SDS011;73326;43.228;0.106;2023-11-18T10:21:02;1.70;;;1.60;;
83398;SDS011;73326;43.228;0.106;2023-11-18T10:23:33;2.33;;;1.38;;
83398;SDS011;73326;43.228;0.106;2023-11-18T10:26:02;1.95;;;1.30;;
83398;SDS011;73326;43.228;0.106;2023-11-18T10:30:58;2.08;;;1.10;;
83398;SDS011;73326;43.228;0.106;2023-11-18T10:33:28;1.20;;;1.10;;
83398;SDS011;73326;43.228;0.106;2023-11-18T10:35:55;1.55;;;1.10;;
83398;SDS011;73326;43.228;0.106;2023-11-18T10:38:22;1.85;;;1.10;;
83398;SDS011;73326;43.228;0.106;2023-11-18T10:40:55;2.60;;;1.38;;
83398;SDS011;73326;43.228;0.106;2023-11-18T10:43:21;3.17;;;1.40;;
83398;SDS011;73326;43.228;0.106;2023-11-18T10:48:19;1.00;;;0.85;;
83398;SDS011;73326;43.228;0.106;2023-11-18T10:50:49;1.50;;;0.90;;
83398;SDS011;73326;43.228;0.106;2023-11-18T10:53:16;3.63;;;1.00;;
83398;SDS011;73326;43.228;0.106;2023-11-18T10:55:42;1.50;;;0.90;;
83398;SDS011;73326;43.228;0.106;2023-11-18T10:58:09;1.02;;;0.80;;
83398;SDS011;73326;43.228;0.106;2023-11-18T11:00:51;1.60;;;0.60;;
83398;SDS011;73326;43.228;0.106;2023-11-18T11:03:20;0.70;;;0.60;;
83398;SDS011;73326;43.228;0.106;2023-11-18T11:05:49;1.13;;;0.70;;
83398;SDS011;73326;43.228;0.106;2023-11-18T11:08:15;1.92;;;0.80;;
83398;SDS011;73326;43.228;0.106;2023-11-18T11:10:42;2.67;;;0.80;;
83398;SDS011;73326;43.228;0.106;2023-11-18T11:13:08;1.70;;;0.80;;
83398;SDS011;73326;43.228;0.106;2023-11-18T11:15:36;3.13;;;2.10;;
83398;SDS011;73326;43.228;0.106;2023-11-18T11:18:08;1.88;;;1.50;;
83398;SDS011;73326;43.228;0.106;2023-11-18T11:20:39;1.38;;;1.00;;
83398;SDS011;73326;43.228;0.106;2023-11-18T11:25:41;0.60;;;0.60;;
83398;SDS011;73326;43.228;0.106;2023-11-18T11:28:16;0.77;;;0.68;;
83398;SDS011;73326;43.228;0.106;2023-11-18T11:30:46;1.25;;;0.80;;
83398;SDS011;73326;43.228;0.106;2023-11-18T11:35:40;1.75;;;0.60;;
83398;SDS011;73326;43.228;0.106;2023-11-18T11:38:10;1.25;;;0.60;;
83398;SDS011;73326;43.228;0.106;2023-11-18T11:40:38;1.88;;;0.60;;
83398;SDS011;73326;43.228;0.106;2023-11-18T11:43:07;1.65;;;0.47;;
83398;SDS011;73326;43.228;0.106;2023-11-18T11:45:36;0.43;;;0.43;;
83398;SDS011;73326;43.228;0.106;2023-11-18T11:48:02;0.40;;;0.32;;
83398;SDS011;73326;43.228;0.106;2023-11-18T11:53:13;0.50;;;0.40;;
83398;SDS011;73326;43.228;0.106;2023-11-18T11:55:48;1.23;;;1.10;;
83398;SDS011;73326;43.228;0.106;2023-11-18T11:58:31;0.82;;;0.80;;
83398;SDS011;73326;43.228;0.106;2023-11-18T12:01:00;0.60;;;0.60;;
83398;SDS011;73326;43.228;0.106;2023-11-18T12:03:32;1.75;;;1.38;;
83398;SDS011;73326;43.228;0.106;2023-11-18T12:06:01;3.70;;;3.13;;
83398;SDS011;73326;43.228;0.106;2023-11-18T12:08:34;4.00;;;3.15;;
83398;SDS011;73326;43.228;0.106;2023-11-18T12:11:01;2.92;;;2.50;;
83398;SDS011;73326;43.228;0.106;2023-11-18T12:13:28;2.15;;;1.95;;
83398;SDS011;73326;43.228;0.106;2023-11-18T12:15:59;3.08;;;2.30;;
83398;SDS011;73326;43.228;0.106;2023-11-18T12:18:35;0.98;;;0.88;;
83398;SDS011;73326;43.228;0.106;2023-11-18T12:21:01;0.90;;;0.80;;
83398;SDS011;73326;43.228;0.106;2023-11-18T12:23:29;0.60;;;0.57;;
83398;SDS011;73326;43.228;0.106;2023-11-18T12:25:56;1.08;;;0.90;;
83398;SDS011;73326;43.228;0.106;2023-11-18T12:28:32;0.60;;;0.60;;
83398;SDS011;73326;43.228;0.106;2023-11-18T12:31:10;0.30;;;0.30;;
83398;SDS011;73326;43.228;0.106;2023-11-18T12:34:00;0.40;;;0.40;;
83398;SDS011;73326;43.228;0.106;2023-11-18T12:42:20;0.50;;;0.50;;
83398;SDS011;73326;43.228;0.106;2023-11-18T12:44:53;1.35;;;0.60;;
83398;SDS011;73326;43.228;0.106;2023-11-18T12:47:25;0.50;;;0.50;;
83398;SDS011;73326;43.228;0.106;2023-11-18T12:49:54;0.43;;;0.43;;
83398;SDS011;73326;43.228;0.106;2023-11-18T12:52:20;1.23;;;0.40;;
83398;SDS011;73326;43.228;0.106;2023-11-18T12:54:47;0.40;;;0.40;;
83398;SDS011;73326;43.228;0.106;2023-11-18T12:57:16;0.50;;;0.50;;
83398;SDS011;73326;43.228;0.106;2023-11-18T12:59:43;0.75;;;0.52;;
83398;SDS011;73326;43.228;0.106;2023-11-18T13:02:12;0.82;;;0.70;;
83398;SDS011;73326;43.228;0.106;2023-11-18T13:04:43;1.17;;;0.70;;
83398;SDS011;73326;43.228;0.106;2023-11-18T13:07:12;0.65;;;0.60;;
83398;SDS011;73326;43.228;0.106;2023-11-18T13:09:38;0.50;;;0.50;;
83398;SDS011;73326;43.228;0.106;2023-11-18T13:12:06;0.82;;;0.50;;
83398;SDS011;73326;43.228;0.106;2023-11-18T13:14:34;1.05;;;0.63;;
83398;SDS011;73326;43.228;0.106;2023-11-18T13:17:04;0.63;;;0.63;;
83398;SDS011;73326;43.228;0.106;2023-11-18T13:19:33;0.60;;;0.60;;
83398;SDS011;73326;43.228;0.106;2023-11-18T13:22:00;0.50;;;0.50;;
83398;SDS011;73326;43.228;0.106;2023-11-18T13:24:28;0.40;;;0.40;;
83398;SDS011;73326;43.228;0.106;2023-11-18T13:26:55;0.85;;;0.55;;
83398;SDS011;73326;43.228;0.106;2023-11-18T13:29:22;1.17;;;0.50;;
83398;SDS011;73326;43.228;0.106;2023-11-18T13:31:49;0.40;;;0.40;;
83398;SDS011;73326;43.228;0.106;2023-11-18T13:34:16;0.45;;;0.40;;
83398;SDS011;73326;43.228;0.106;2023-11-18T13:36:42;0.60;;;0.60;;
83398;SDS011;73326;43.228;0.106;2023-11-18T13:39:14;0.50;;;0.50;;
83398;SDS011;73326;43.228;0.106;2023-11-18T13:41:42;0.68;;;0.68;;
83398;SDS011;73326;43.228;0.106;2023-11-18T13:44:09;0.68;;;0.60;;
83398;SDS011;73326;43.228;0.106;2023-11-18T13:46:41;0.60;;;0.60;;
83398;SDS011;73326;43.228;0.106;2023-11-18T13:49:08;0.60;;;0.60;;
83398;SDS011;73326;43.228;0.106;2023-11-18T13:51:34;0.68;;;0.52;;
83398;SDS011;73326;43.228;0.106;2023-11-18T13:54:01;1.20;;;0.50;;
83398;SDS011;73326;43.228;0.106;2023-11-18T13:56:28;1.42;;;0.40;;
83398;SDS011;73326;43.228;0.106;2023-11-18T13:58:55;0.90;;;0.50;;
83398;SDS011;73326;43.228;0.106;2023-11-18T14:01:21;0.50;;;0.50;;
83398;SDS011;73326;43.228;0.106;2023-11-18T14:03:47;1.20;;;0.40;;
83398;SDS011;73326;43.228;0.106;2023-11-18T14:06:13;1.10;;;0.47;;
83398;SDS011;73326;43.228;0.106;2023-11-18T14:08:42;1.17;;;1.08;;
83398;SDS011;73326;43.228;0.106;2023-11-18T14:11:09;0.90;;;0.50;;
83398;SDS011;73326;43.228;0.106;2023-11-18T14:13:35;0.47;;;0.47;;
83398;SDS011;73326;43.228;0.106;2023-11-18T14:16:02;0.70;;;0.70;;
83398;SDS011;73326;43.228;0.106;2023-11-18T14:18:29;1.73;;;0.50;;
83398;SDS011;73326;43.228;0.106;2023-11-18T14:20:56;0.60;;;0.60;;
83398;SDS011;73326;43.228;0.106;2023-11-18T14:23:22;0.70;;;0.60;;
83398;SDS011;73326;43.228;0.106;2023-11-18T14:25:50;0.60;;;0.60;;
83398;SDS011;73326;43.228;0.106;2023-11-18T14:28:16;2.83;;;0.70;;
83398;SDS011;73326;43.228;0.106;2023-11-18T14:30:42;1.95;;;1.20;;
83398;SDS011;73326;43.228;0.106;2023-11-18T14:33:08;3.10;;;1.60;;
83398;SDS011;73326;43.228;0.106;2023-11-18T14:35:34;2.05;;;1.20;;
83398;SDS011;73326;43.228;0.106;2023-11-18T14:38:01;6.03;;;2.22;;
83398;SDS011;73326;43.228;0.106;2023-11-18T14:40:27;2.92;;;1.10;;
83398;SDS011;73326;43.228;0.106;2023-11-18T14:42:53;4.20;;;1.00;;
83398;SDS011;73326;43.228;0.106;2023-11-18T14:45:19;3.70;;;1.10;;
83398;SDS011;73326;43.228;0.106;2023-11-18T14:47:46;3.58;;;1.10;;
83398;SDS011;73326;43.228;0.106;2023-11-18T14:50:22;1.63;;;1.10;;
83398;SDS011;73326;43.228;0.106;2023-11-18T14:52:51;2.13;;;1.27;;
83398;SDS011;73326;43.228;0.106;2023-11-18T14:55:24;1.30;;;1.20;;
83398;SDS011;73326;43.228;0.106;2023-11-18T14:57:50;3.58;;;1.10;;
83398;SDS011;73326;43.228;0.106;2023-11-18T15:00:16;2.25;;;1.25;;
83398;SDS011;73326;43.228;0.106;2023-11-18T15:02:51;2.25;;;1.30;;
83398;SDS011;73326;43.228;0.106;2023-11-18T15:05:18;2.03;;;1.20;;
83398;SDS011;73326;43.228;0.106;2023-11-18T15:07:48;1.33;;;1.20;;
83398;SDS011;73326;43.228;0.106;2023-11-18T15:10:15;2.15;;;1.00;;
83398;SDS011;73326;43.228;0.106;2023-11-18T15:12:44;1.52;;;1.10;;
83398;SDS011;73326;43.228;0.106;2023-11-18T15:15:10;1.00;;;0.90;;
83398;SDS011;73326;43.228;0.106;2023-11-18T15:17:43;1.15;;;1.05;;